St-Faustin-Lac-Carre, Canada
Current Conditions -  °F | °C
As of 11:00 PM on Thursday 27 Nov 2014 (Local Time) from CYMX Reporting Station
Overcast Overcast  
Wind Chill: 25°   Ceiling: 12000
Heat Index: 25°   Visibility: 25mi
Dew Point: 18°   Wind: 3mph
Humidity: 74%   Direction: 290°WNW
Pressure: 30.05"   Gusts: NA
Location:  46.11°N, 74.48°W
Report Text: CYMX 280400Z 29003KT 240V320 25SM OVC120 M04/M08 A3005 RMK AC8 SLP180
Loading
Personal Weather Stations






























Interactive Weather Map New forecast layout! Learn more

10-Day Weather Forecast

Advertisements
Track Severe Weather on mobile